Time;durP1;ratioP1;P1;durP2;ratioP2;P2;SDS_P1;SDS_P2;PMS_P1;PMS_P2;Temp;Humidity;BMP_temperature;BMP_pressure;BME280_temperature;BME280_humidity;BME280_pressure;Samples;Min_cycle;Max_cycle;Signal;HPM_P1;HPM_P2
2023/01/16 00:01:53;;;;;;;12.43;6.90;;;;;;;;;;5076122;28;20419;-73
2023/01/16 00:04:19;;;;;;;12.75;6.85;;;;;;;;;;5072096;28;20419;-73
2023/01/16 00:06:45;;;;;;;11.18;6.47;;;;;;;;;;5073155;28;20418;-74
2023/01/16 00:09:12;;;;;;;11.73;6.53;;;;;;;;;;5083547;28;20502;-74
2023/01/16 00:11:38;;;;;;;12.82;6.35;;;;;;;;;;5087783;28;20416;-74
2023/01/16 00:14:04;;;;;;;12.32;6.60;;;;;;;;;;5072941;28;20956;-74
2023/01/16 00:16:30;;;;;;;11.00;6.78;;;;;;;;;;5088208;28;20414;-74
2023/01/16 00:18:56;;;;;;;11.73;6.72;;;;;;;;;;5082874;28;20894;-74
2023/01/16 00:21:26;;;;;;;12.27;6.90;;;;;;;;;;5090271;28;20425;-74
2023/01/16 00:23:56;;;;;;;12.32;6.60;;;;;;;;;;5078314;28;20489;-74
2023/01/16 00:26:23;;;;;;;14.20;6.18;;;;;;;;;;5090489;28;20406;-74
2023/01/16 00:28:49;;;;;;;11.98;6.00;;;;;;;;;;5068154;28;20913;-74
2023/01/16 00:31:15;;;;;;;11.93;6.25;;;;;;;;;;5088674;28;20857;-74
2023/01/16 00:33:42;;;;;;;10.40;5.78;;;;;;;;;;5089185;28;20504;-74
2023/01/16 00:36:09;;;;;;;10.77;6.35;;;;;;;;;;5074087;28;20777;-74
2023/01/16 00:38:35;;;;;;;11.30;6.35;;;;;;;;;;5074328;28;20545;-74
2023/01/16 00:41:02;;;;;;;14.82;6.25;;;;;;;;;;5071256;28;20457;-74
2023/01/16 00:43:28;;;;;;;11.63;6.07;;;;;;;;;;5083334;28;20474;-74
2023/01/16 00:45:56;;;;;;;13.15;6.55;;;;;;;;;;5087417;28;20414;-74
2023/01/16 00:48:22;;;;;;;13.13;6.47;;;;;;;;;;5077926;28;20826;-74
2023/01/16 00:50:48;;;;;;;11.25;6.65;;;;;;;;;;5076033;28;20524;-74
2023/01/16 00:53:14;;;;;;;11.90;7.03;;;;;;;;;;5079411;28;20945;-74
2023/01/16 00:55:41;;;;;;;13.10;6.55;;;;;;;;;;5086229;28;20421;-74
2023/01/16 00:58:08;;;;;;;13.85;6.30;;;;;;;;;;5080191;28;20927;-74
2023/01/16 01:00:35;;;;;;;10.52;6.10;;;;;;;;;;5081266;28;20919;-74
2023/01/16 01:03:02;;;;;;;13.90;6.50;;;;;;;;;;5085529;28;21033;-74
2023/01/16 01:05:28;;;;;;;15.73;6.70;;;;;;;;;;5082627;28;20426;-79
2023/01/16 01:07:54;;;;;;;14.23;6.00;;;;;;;;;;5083522;28;20524;-80
2023/01/16 01:10:20;;;;;;;12.80;6.40;;;;;;;;;;5089978;28;20417;-79
2023/01/16 01:12:46;;;;;;;11.90;6.38;;;;;;;;;;5087135;28;20752;-80
2023/01/16 01:15:12;;;;;;;70.72;13.60;;;;;;;;;;5086375;28;20410;-80
2023/01/16 01:17:38;;;;;;;10.73;6.18;;;;;;;;;;5086242;28;20425;-79
2023/01/16 01:20:05;;;;;;;13.13;6.13;;;;;;;;;;5074555;28;20455;-79
2023/01/16 01:22:31;;;;;;;12.48;5.60;;;;;;;;;;5073222;28;20410;-79
2023/01/16 01:24:57;;;;;;;11.40;5.95;;;;;;;;;;5078655;28;20914;-80
2023/01/16 01:27:23;;;;;;;11.10;5.28;;;;;;;;;;5089598;28;20402;-80
2023/01/16 01:29:49;;;;;;;11.90;5.30;;;;;;;;;;5077177;28;20854;-80
2023/01/16 01:32:15;;;;;;;13.50;5.20;;;;;;;;;;5093626;28;20414;-79
2023/01/16 01:34:42;;;;;;;11.57;6.68;;;;;;;;;;5072191;28;20427;-80
2023/01/16 01:37:08;;;;;;;10.85;5.20;;;;;;;;;;5070472;28;20926;-79
2023/01/16 01:39:34;;;;;;;9.48;4.97;;;;;;;;;;5102446;28;20489;-80
2023/01/16 01:44:51;;;;;;;11.68;4.95;;;;;;;;;;5117437;27;20421;-79
2023/01/16 01:47:18;;;;;;;8.98;4.63;;;;;;;;;;5088087;28;20938;-79
2023/01/16 01:49:44;;;;;;;10.98;4.80;;;;;;;;;;5070927;28;20918;-80
2023/01/16 01:52:11;;;;;;;17.67;6.90;;;;;;;;;;5088702;28;20982;-80
2023/01/16 01:54:40;;;;;;;8.93;4.60;;;;;;;;;;5077442;28;20442;-79
2023/01/16 01:57:10;;;;;;;9.10;4.35;;;;;;;;;;5085073;28;20497;-80
2023/01/16 01:59:42;;;;;;;13.47;4.93;;;;;;;;;;5082288;28;20428;-80
2023/01/16 02:02:10;;;;;;;13.32;4.70;;;;;;;;;;5085109;28;20414;-80
2023/01/16 02:04:41;;;;;;;15.55;5.10;;;;;;;;;;5080780;28;20536;-79
2023/01/16 02:07:09;;;;;;;10.20;4.55;;;;;;;;;;5084991;28;20410;-79
2023/01/16 02:09:35;;;;;;;12.70;4.72;;;;;;;;;;5080152;28;20911;-79
2023/01/16 02:12:04;;;;;;;11.07;4.47;;;;;;;;;;5086489;28;20766;-80
2023/01/16 02:14:32;;;;;;;11.03;4.83;;;;;;;;;;5072017;28;20514;-80
2023/01/16 02:20:07;;;;;;;11.65;4.40;;;;;;;;;;5080895;28;20514;-80
2023/01/16 02:22:48;;;;;;;10.50;4.20;;;;;;;;;;5071483;28;20425;-79
2023/01/16 02:25:17;;;;;;;11.63;4.30;;;;;;;;;;5111330;28;20462;-74
2023/01/16 02:28:20;;;;;;;11.00;4.80;;;3.90;99.90;;;;;;5084577;28;20987;-74
2023/01/16 02:30:52;;;;;;;10.38;4.65;;;;;;;;;;5073357;28;20412;-74
2023/01/16 02:33:56;;;;;;;10.52;4.70;;;3.90;99.90;;;;;;5119946;28;20453;-74
2023/01/16 02:36:44;;;;;;;12.45;4.45;;;;;;;;;;5076553;28;20421;-73
2023/01/16 02:39:16;;;;;;;10.83;4.70;;;;;;;;;;5123397;27;20426;-73
2023/01/16 02:41:55;;;;;;;11.00;4.13;;;;;;;;;;5090920;28;20418;-74
2023/01/16 02:44:24;;;;;;;11.40;4.22;;;;;;;;;;5094810;28;20416;-73
2023/01/16 02:46:51;;;;;;;11.10;4.75;;;;;;;;;;5099621;28;20410;-73
2023/01/16 02:49:24;;;;;;;12.07;4.40;;;;;;;;;;5092925;28;20436;-73
2023/01/16 02:51:58;;;;;;;11.00;4.80;;;;;;;;;;5099438;28;20445;-74
2023/01/16 02:54:28;;;;;;;18.33;5.10;;;;;;;;;;5093396;28;21937;-74
2023/01/16 02:57:04;;;;;;;10.47;4.73;;;;;;;;;;5085450;28;20418;-74
2023/01/16 02:59:30;;;;;;;13.05;4.57;;;;;;;;;;5099841;28;20432;-73
2023/01/16 03:01:57;;;;;;;9.77;4.57;;;;;;;;;;5103095;28;20425;-74
2023/01/16 03:04:38;;;;;;;9.43;4.65;;;;;;;;;;5103726;28;20402;-74
2023/01/16 03:07:10;;;;;;;12.20;4.70;;;;;;;;;;5119710;28;20468;-74
2023/01/16 03:09:46;;;;;;;9.73;4.30;;;;;;;;;;5093549;28;20428;-73
2023/01/16 03:12:24;;;;;;;12.80;4.43;;;;;;;;;;5109892;28;20421;-74
2023/01/16 03:15:17;;;;;;;13.68;5.00;;;;;;;;;;5090570;28;20522;-73
2023/01/16 03:17:58;;;;;;;12.75;4.93;;;;;;;;;;5090079;28;20869;-74
2023/01/16 03:20:34;;;;;;;13.60;5.13;;;;;;;;;;5086266;28;20426;-74
2023/01/16 03:23:00;;;;;;;9.52;4.82;;;;;;;;;;5073426;28;20412;-74
2023/01/16 03:25:35;;;;;;;13.73;5.63;;;;;;;;;;5087575;28;20565;-74
2023/01/16 03:28:14;;;;;;;12.73;5.35;;;;;;;;;;5076044;28;20428;-74
2023/01/16 03:30:46;;;;;;;13.07;5.32;;;;;;;;;;5083625;28;20416;-74
2023/01/16 03:33:12;;;;;;;15.32;7.30;;;;;;;;;;5078796;28;21476;-74
2023/01/16 03:35:42;;;;;;;26.42;5.88;;;;;;;;;;5087210;28;20517;-74
2023/01/16 03:38:10;;;;;;;10.48;5.20;;;;;;;;;;5075418;28;20515;-73
2023/01/16 03:40:40;;;;;;;12.90;5.40;;;;;;;;;;5088903;28;20479;-74
2023/01/16 03:43:19;;;;;;;12.38;5.15;;;;;;;;;;5074321;28;20412;-73
2023/01/16 03:45:45;;;;;;;12.85;5.35;;;;;;;;;;5059341;28;20415;-74
2023/01/16 03:48:16;;;;;;;12.88;5.65;;;;;;;;;;5075457;28;20425;-74
2023/01/16 03:50:48;;;;;;;120.32;16.33;;;;;;;;;;5090385;28;20449;-74
2023/01/16 03:53:16;;;;;;;11.85;5.38;;;;;;;;;;5087890;28;20418;-74
2023/01/16 03:55:45;;;;;;;10.75;5.70;;;;;;;;;;5090594;28;20425;-74
2023/01/16 03:58:19;;;;;;;12.25;5.85;;;;;;;;;;5080166;28;20418;-74
2023/01/16 04:01:14;;;;;;;14.35;6.20;;;;;;;;;;5091123;28;20765;-74
2023/01/16 04:03:52;;;;;;;14.20;6.75;;;;;;;;;;5102282;27;20411;-73
2023/01/16 04:06:23;;;;;;;13.07;6.60;;;;;;;;;;5075020;28;20423;-73
2023/01/16 04:08:52;;;;;;;11.98;7.10;;;;;;;;;;5067210;28;20420;-74
2023/01/16 04:11:19;;;;;;;12.25;7.00;;;;;;;;;;5072962;28;20996;-74
2023/01/16 04:13:46;;;;;;;14.20;7.40;;;;;;;;;;5089203;28;20506;-73
2023/01/16 04:16:14;;;;;;;12.95;7.00;;;;;;;;;;5089598;28;20405;-73
2023/01/16 04:18:41;;;;;;;14.00;7.20;;;;;;;;;;5082929;28;20418;-74
2023/01/16 04:21:07;;;;;;;15.07;7.93;;;;;;;;;;5103428;28;21614;-74
2023/01/16 04:23:34;;;;;;;14.75;7.82;;;;;;;;;;5091003;28;20414;-74
2023/01/16 04:26:00;;;;;;;14.05;7.90;;;;;;;;;;5089989;28;20925;-74
2023/01/16 04:28:26;;;;;;;16.92;8.23;;;;;;;;;;5080260;28;20414;-74
2023/01/16 04:30:52;;;;;;;19.50;9.60;;;;;;;;;;5088975;28;20532;-74
2023/01/16 04:33:18;;;;;;;16.80;8.35;;;;;;;;;;5087045;28;20426;-74
2023/01/16 04:35:44;;;;;;;14.20;8.82;;;;;;;;;;5089919;28;20512;-74
2023/01/16 04:38:12;;;;;;;16.08;9.13;;;;;;;;;;5075347;28;20465;-74
2023/01/16 04:40:38;;;;;;;17.67;9.77;;;;;;;;;;5075135;28;20786;-74
2023/01/16 04:43:04;;;;;;;16.92;9.52;;;;;;;;;;5073847;28;20988;-80
2023/01/16 04:45:30;;;;;;;19.80;9.60;;;;;;;;;;5091765;28;20455;-79
2023/01/16 04:47:56;;;;;;;18.30;10.23;;;;;;;;;;5084463;28;20537;-80
2023/01/16 04:50:22;;;;;;;18.70;10.93;;;;;;;;;;5071991;28;20478;-80
2023/01/16 04:52:48;;;;;;;21.58;11.35;;;;;;;;;;5080616;28;20451;-80
2023/01/16 04:55:15;;;;;;;19.05;11.80;;;;;;;;;;5090977;28;20411;-79
2023/01/16 04:57:41;;;;;;;21.10;12.00;;;;;;;;;;5082979;28;20427;-79
2023/01/16 05:00:08;;;;;;;20.70;12.40;;;;;;;;;;5072596;28;20429;-79
2023/01/16 05:02:34;;;;;;;23.40;12.40;;;;;;;;;;5113819;27;20446;-81
2023/01/16 05:05:00;;;;;;;20.23;12.48;;;;;;;;;;5088197;28;20751;-80
2023/01/16 05:07:29;;;;;;;22.00;12.63;;;;;;;;;;5090062;28;20808;-80
2023/01/16 05:09:55;;;;;;;20.52;12.13;;;;;;;;;;5069701;28;20826;-81
2023/01/16 05:12:21;;;;;;;20.73;11.82;;;;;;;;;;5092376;28;20418;-80
2023/01/16 05:14:47;;;;;;;21.60;12.32;;;;;;;;;;5097464;28;20430;-79
2023/01/16 05:17:13;;;;;;;23.05;12.68;;;;;;;;;;5101090;28;20424;-80
2023/01/16 05:19:39;;;;;;;20.50;12.70;;;;;;;;;;5087637;28;20990;-80
2023/01/16 05:22:05;;;;;;;25.05;12.35;;;;;;;;;;5086745;28;20420;-79
2023/01/16 05:24:31;;;;;;;53.03;17.02;;;;;;;;;;5073381;28;20442;-80
2023/01/16 05:26:57;;;;;;;23.33;12.90;;;;;;;;;;5124014;27;20414;-79
2023/01/16 05:29:23;;;;;;;23.50;12.52;;;;;;;;;;5072891;28;20922;-79
2023/01/16 05:31:49;;;;;;;25.63;12.60;;;;;;;;;;5081293;28;20420;-80
2023/01/16 05:34:15;;;;;;;25.27;12.40;;;;;;;;;;5075840;28;20419;-81
2023/01/16 05:36:41;;;;;;;22.52;12.50;;;;;;;;;;5085161;28;20458;-80
2023/01/16 05:39:09;;;;;;;24.75;12.68;;;;;;;;;;5097802;28;20961;-80
2023/01/16 05:41:35;;;;;;;24.15;13.07;;;;;;;;;;5114824;27;20434;-80
2023/01/16 05:44:01;;;;;;;22.17;12.88;;;;;;;;;;5089479;28;20417;-80
2023/01/16 05:46:27;;;;;;;22.40;12.25;;;;;;;;;;5072225;28;20897;-81
2023/01/16 05:48:53;;;;;;;25.35;12.90;;;;;;;;;;5089595;28;20418;-81
2023/01/16 05:51:19;;;;;;;26.60;13.02;;;;;;;;;;5089814;28;20445;-81
2023/01/16 05:53:49;;;;;;;26.20;13.02;;;;;;;;;;5105944;28;20421;-81
2023/01/16 05:56:15;;;;;;;23.33;13.55;;;;;;;;;;5090565;28;20418;-81
2023/01/16 05:58:41;;;;;;;24.30;13.00;;;;;;;;;;5090781;28;20921;-81
2023/01/16 06:01:07;;;;;;;26.45;13.85;;;;;;;;;;5072211;28;20912;-80
2023/01/16 06:03:33;;;;;;;27.67;15.00;;;;;;;;;;5086812;28;20815;-81
2023/01/16 06:06:00;;;;;;;26.27;13.48;;;;;;;;;;5076917;28;20415;-82
2023/01/16 06:08:26;;;;;;;24.88;13.50;;;;;;;;;;5108395;28;20447;-80
2023/01/16 06:10:52;;;;;;;28.50;15.02;;;;;;;;;;5089455;28;20425;-81
2023/01/16 06:13:18;;;;;;;27.23;14.93;;;;;;;;;;5092946;28;20437;-80
2023/01/16 06:15:44;;;;;;;25.35;14.70;;;;;;;;;;5093418;28;20417;-79
2023/01/16 06:18:10;;;;;;;24.85;14.25;;;;;;;;;;5092415;28;20414;-81
2023/01/16 06:20:37;;;;;;;27.98;15.05;;;;;;;;;;5094111;28;20427;-81
2023/01/16 06:23:03;;;;;;;27.52;15.73;;;;;;;;;;5093903;28;20425;-80
2023/01/16 06:25:29;;;;;;;23.20;13.93;;;;;;;;;;5074968;28;20418;-81
2023/01/16 06:27:55;;;;;;;26.17;14.50;;;;;;;;;;5076828;28;20788;-81
2023/01/16 06:30:21;;;;;;;30.23;16.23;;;;;;;;;;5075039;28;20421;-81
2023/01/16 06:32:50;;;;;;;27.98;14.52;;;;;;;;;;5094259;28;20893;-81
2023/01/16 06:35:17;;;;;;;26.35;14.07;;;;;;;;;;5093061;28;20881;-82
2023/01/16 06:37:43;;;;;;;25.88;14.07;;;;;;;;;;5076704;28;20414;-81
2023/01/16 06:40:09;;;;;;;25.60;14.63;;;;;;;;;;5095063;28;20789;-80
2023/01/16 06:42:36;;;;;;;26.50;15.02;;;;;;;;;;5096489;28;20414;-81
2023/01/16 06:45:02;;;;;;;27.38;15.27;;;;;;;;;;5092219;28;20441;-81
2023/01/16 06:47:28;;;;;;;41.90;18.05;;;;;;;;;;5077338;28;20471;-81
2023/01/16 06:49:54;;;;;;;80.47;20.13;;;;;;;;;;5091428;28;20505;-81
2023/01/16 06:52:21;;;;;;;45.80;16.50;;;;;;;;;;5078743;28;20413;-80
2023/01/16 06:54:47;;;;;;;28.40;13.65;;;;;;;;;;5087175;28;20468;-81
2023/01/16 06:57:14;;;;;;;25.30;12.57;;;;;;;;;;5080452;28;20909;-81
2023/01/16 06:59:40;;;;;;;23.17;12.47;;;;;;;;;;5074744;28;20507;-81
2023/01/16 07:02:08;;;;;;;27.80;13.48;;;;;;;;;;5093071;28;20495;-81
2023/01/16 07:04:34;;;;;;;68.13;14.75;;;;;;;;;;5095241;28;20398;-81
2023/01/16 07:07:00;;;;;;;61.22;14.68;;;;;;;;;;5076430;28;20810;-82
2023/01/16 07:09:28;;;;;;;32.60;11.63;;;;;;;;;;5073706;28;20418;-81
2023/01/16 07:11:54;;;;;;;54.83;13.18;;;;;;;;;;5074401;28;20406;-82
2023/01/16 07:22:34;;;;;;;111.72;16.08;;;;;;;;;;5085109;28;20418;-84
2023/01/16 07:25:01;;;;;;;88.35;14.18;;;;;;;;;;5083621;28;20422;-84
2023/01/16 07:27:27;;;;;;;170.55;20.50;;;;;;;;;;5109879;27;20519;-86
2023/01/16 07:29:54;;;;;;;16.60;8.52;;;;;;;;;;5092168;28;20449;-85
2023/01/16 07:32:20;;;;;;;29.63;9.00;;;;;;;;;;5077546;28;20516;-85
2023/01/16 07:34:46;;;;;;;29.33;10.63;;;;;;;;;;5085547;28;20522;-87
2023/01/16 07:37:12;;;;;;;16.60;8.40;;;;;;;;;;5091501;28;20478;-85
2023/01/16 07:39:38;;;;;;;18.00;8.88;;;;;;;;;;5074882;28;20417;-85
2023/01/16 07:42:05;;;;;;;17.02;8.55;;;;;;;;;;5074792;28;20425;-85
2023/01/16 07:44:32;;;;;;;15.37;8.47;;;;;;;;;;5125497;27;20414;-85
2023/01/16 07:46:58;;;;;;;17.60;8.60;;;;;;;;;;5069360;28;20407;-84
2023/01/16 07:49:24;;;;;;;19.48;8.50;;;;;;;;;;5078935;28;20963;-84
2023/01/16 07:51:50;;;;;;;15.52;8.25;;;;;;;;;;5113614;27;20447;-83
2023/01/16 07:54:16;;;;;;;17.93;8.00;;;;;;;;;;5083134;28;20522;-83
2023/01/16 07:56:42;;;;;;;14.85;8.50;;;;;;;;;;5083712;28;20417;-82
2023/01/16 07:59:08;;;;;;;17.17;8.55;;;;;;;;;;5086672;28;20424;-83
2023/01/16 08:01:35;;;;;;;18.08;8.70;;;;;;;;;;5073926;28;20426;-82
2023/01/16 08:04:01;;;;;;;16.77;8.30;;;;;;;;;;5073168;28;20414;-82
2023/01/16 08:06:27;;;;;;;14.15;7.43;;;;;;;;;;5074760;28;20961;-83
2023/01/16 08:08:53;;;;;;;18.35;8.20;;;;;;;;;;5091644;28;20432;-84
2023/01/16 08:11:38;;;;;;;17.95;7.65;;;;;;;;;;5074885;28;20405;-82
2023/01/16 08:14:05;;;;;;;14.82;7.65;;;;;;;;;;5071496;28;20452;-83
2023/01/16 08:16:31;;;;;;;15.45;7.63;;;;;;;;;;5079079;28;20829;-83
2023/01/16 08:18:57;;;;;;;14.75;7.18;;;;;;;;;;5072656;28;20425;-83
2023/01/16 08:21:23;;;;;;;15.33;7.80;;;;;;;;;;5080951;28;20775;-83
2023/01/16 08:23:50;;;;;;;15.88;7.95;;;;;;;;;;5086481;28;20410;-83
2023/01/16 08:26:16;;;;;;;15.63;7.93;;;;;;;;;;5069450;28;20418;-83
2023/01/16 08:28:42;;;;;;;13.90;6.72;;;;;;;;;;5082151;28;20422;-83
2023/01/16 08:31:11;;;;;;;16.95;7.93;;;;;;;;;;5080447;28;20494;-84
2023/01/16 08:33:37;;;;;;;15.50;7.65;;;;;;;;;;5069401;28;20425;-84
2023/01/16 08:36:05;;;;;;;12.60;7.20;;;;;;;;;;5071385;28;20428;-83
2023/01/16 08:38:31;;;;;;;14.07;7.68;;;;;;;;;;5077787;28;20418;-83
2023/01/16 08:40:57;;;;;;;42.05;9.57;;;;;;;;;;5077148;28;20929;-83
2023/01/16 08:51:48;;;;;;;16.55;8.57;;;;;;;;;;5091336;28;20418;-82
2023/01/16 08:54:14;;;;;;;15.23;8.95;;;;;;;;;;5079479;28;20411;-82
2023/01/16 08:56:42;;;;;;;15.07;8.25;;;;;;;;;;5088405;28;20407;-82
2023/01/16 08:59:11;;;;;;;14.07;8.60;;;;;;;;;;5089029;28;20431;-83
2023/01/16 09:01:38;;;;;;;15.27;8.30;;;;;;;;;;5105296;28;20415;-83
2023/01/16 09:04:05;;;;;;;17.55;8.60;;;;;;;;;;5103860;28;20414;-84
2023/01/16 09:06:31;;;;;;;14.68;8.02;;;;;;;;;;5087637;28;20418;-84
2023/01/16 09:08:57;;;;;;;15.02;7.43;;;;;;;;;;5117436;27;20414;-84
2023/01/16 09:14:08;;;;;;;10.85;6.80;;;;;;;;;;5088364;28;20750;-84
2023/01/16 09:16:34;;;;;;;11.73;7.05;;;;;;;;;;5087705;28;20860;-83
2023/01/16 09:19:00;;;;;;;26.20;8.05;;;;;;;;;;5089883;28;20426;-83
2023/01/16 09:21:26;;;;;;;11.43;5.95;;;;;;;;;;5108142;27;20537;-83
2023/01/16 09:23:53;;;;;;;11.80;6.40;;;;;;;;;;5118235;27;20990;-82
2023/01/16 09:26:19;;;;;;;10.55;6.10;;;;;;;;;;5089708;28;20484;-82
2023/01/16 09:28:46;;;;;;;9.93;5.93;;;;;;;;;;5085023;28;20471;-83
2023/01/16 09:31:12;;;;;;;9.80;5.57;;;;;;;;;;5080560;28;20729;-83
2023/01/16 09:33:38;;;;;;;21.98;7.40;;;;;;;;;;5120047;27;20449;-83
2023/01/16 09:36:05;;;;;;;11.23;6.13;;;;;;;;;;5120780;27;20517;-83
2023/01/16 09:38:31;;;;;;;10.48;5.80;;;;;;;;;;5072763;28;20426;-83
2023/01/16 09:40:58;;;;;;;11.03;5.87;;;;;;;;;;5087694;28;20411;-83
2023/01/16 09:43:35;;;;;;;10.32;5.95;;;;;;;;;;5086051;28;20406;-83
2023/01/16 09:46:07;;;;;;;13.05;5.57;;;;;;;;;;5113127;28;20913;-83
2023/01/16 09:48:34;;;;;;;11.05;6.07;;;;;;;;;;5082335;28;20410;-83
2023/01/16 09:51:06;;;;;;;12.97;5.57;;;;;;;;;;5082957;28;20438;-83
2023/01/16 09:59:19;;;;;;;10.70;6.00;;;;;;;;;;5089948;28;20508;-84
2023/01/16 10:01:48;;;;;;;9.40;5.75;;;;;;;;;;5099661;28;20412;-83
2023/01/16 10:04:14;;;;;;;17.13;6.37;;;;;;;;;;5094396;28;20468;-85
2023/01/16 10:06:45;;;;;;;9.73;5.28;;;;;;;;;;5070250;28;20417;-83
2023/01/16 10:09:20;;;;;;;11.95;5.72;;;;;;;;;;5088521;28;20410;-84
2023/01/16 10:11:50;;;;;;;10.83;5.50;;;;;;;;;;5115928;27;20410;-84
2023/01/16 10:14:19;;;;;;;9.85;5.07;;;;;;;;;;5084390;28;20480;-83
2023/01/16 10:16:45;;;;;;;33.53;7.03;;;;;;;;;;5087388;28;21130;-84
2023/01/16 10:19:20;;;;;;;10.07;5.40;;;;;;;;;;5080931;28;20783;-84
2023/01/16 10:22:25;;;;;;;9.85;5.20;;;;;;;;;;5085273;28;20425;-84
2023/01/16 10:24:58;;;;;;;10.20;4.57;;;;;;;;;;5025233;28;20510;-85
2023/01/16 10:27:36;;;;;;;8.00;5.00;;;;;;;;;;4981826;28;20562;-85
2023/01/16 10:30:10;;;;;;;11.05;4.95;;;;;;;;;;5056525;28;20899;-84
2023/01/16 10:32:40;;;;;;;14.23;5.63;;;;;;;;;;5092915;28;20418;-84
2023/01/16 10:35:13;;;;;;;8.18;4.68;;;;;;;;;;5079858;28;20535;-85
2023/01/16 10:37:42;;;;;;;7.38;3.80;;;;;;;;;;5123769;28;20417;-86
2023/01/16 10:40:14;;;;;;;13.55;3.78;;;;;;;;;;5093166;28;20418;-85
2023/01/16 10:51:01;;;;;;;6.38;3.13;;;;;;;;;;5077102;28;20486;-85
2023/01/16 10:53:27;;;;;;;8.10;3.00;;;;;;;;;;5084576;28;20410;-85
2023/01/16 10:55:54;;;;;;;5.38;3.20;;;;;;;;;;5066010;28;20442;-85
2023/01/16 10:58:27;;;;;;;5.60;2.80;;;;;;;;;;5086160;28;20418;-85
2023/01/16 11:01:04;;;;;;;64.63;6.82;;;;;;;;;;5089286;28;20886;-86
2023/01/16 11:03:40;;;;;;;5.10;2.90;;;;;;;;;;5088979;28;20407;-86
2023/01/16 11:06:07;;;;;;;4.72;2.80;;;;;;;;;;5090651;28;20426;-85
2023/01/16 11:08:35;;;;;;;5.70;3.00;;;;;;;;;;5093554;28;20414;-86
2023/01/16 11:11:01;;;;;;;4.97;3.00;;;;;;;;;;5080059;28;20744;-86
2023/01/16 11:19:18;;;;;;;4.10;2.92;;;;;;;;;;5093149;28;20422;-85
2023/01/16 11:21:44;;;;;;;4.82;3.33;;;;;;;;;;5091288;28;20467;-78
2023/01/16 11:24:15;;;;;;;4.18;3.42;;;;;;;;;;5102864;28;20414;-79
2023/01/16 11:26:45;;;;;;;5.40;3.53;;;;;;;;;;5086148;28;20415;-79
2023/01/16 11:29:16;;;;;;;12.00;3.80;;;;;;;;;;5065358;28;20443;-79
2023/01/16 11:31:47;;;;;;;14.02;3.60;;;;;;;;;;5083970;28;20527;-78
2023/01/16 11:34:14;;;;;;;4.82;3.30;;;;;;;;;;5073502;28;20422;-79
2023/01/16 11:36:41;;;;;;;4.47;3.17;;;;;;;;;;5090557;28;20417;-79
2023/01/16 11:39:17;;;;;;;4.75;3.30;;;;;;;;;;5085230;28;20506;-79
2023/01/16 11:41:46;;;;;;;4.78;3.58;;;;;;;;;;5094001;28;20423;-79
2023/01/16 11:47:10;;;;;;;5.78;4.00;;;;;;;;;;5105412;27;20466;-78
2023/01/16 11:49:39;;;;;;;5.03;3.90;;;;;;;;;;5081949;28;20459;-79
2023/01/16 11:52:05;;;;;;;6.38;4.50;;;;;;;;;;5080764;28;20427;-81
2023/01/16 11:54:33;;;;;;;6.63;4.30;;;;;;;;;;5089589;28;20492;-79
2023/01/16 11:57:17;;;;;;;7.18;4.60;;;3.50;99.90;;;;;;5093724;28;20413;-79
2023/01/16 12:00:00;;;;;;;7.45;4.80;;;;;;;;;;5090210;28;20426;-79
2023/01/16 12:02:45;;;;;;;7.75;5.40;;;;;;;;;;5101675;28;20415;-80
2023/01/16 12:08:30;;;;;;;5.90;4.28;;;;;;;;;;5105173;28;20414;-80
2023/01/16 12:11:09;;;;;;;5.28;3.92;;;;;;;;;;5122829;27;20413;-79
2023/01/16 12:16:57;;;;;;;5.40;3.50;;;;;;;;;;5091173;28;20429;-80
2023/01/16 12:19:45;;;;;;;5.32;2.92;;;;;;;;;;5108923;28;20418;-80
2023/01/16 12:22:29;;;;;;;4.68;2.95;;;;;;;;;;5092135;28;20398;-80
2023/01/16 12:25:05;;;;;;;4.57;2.88;;;;;;;;;;5092350;28;20439;-80
2023/01/16 12:27:43;;;;;;;4.87;3.20;;;;;;;;;;5077144;28;20557;-80
2023/01/16 12:30:19;;;;;;;4.93;2.95;;;;;;;;;;5092005;28;20505;-79
2023/01/16 12:33:01;;;;;;;5.67;3.37;;;;;;;;;;5075335;28;20482;-80
2023/01/16 12:35:48;;;;;;;7.00;3.22;;;;;;;;;;5074830;28;20421;-80
2023/01/16 12:38:16;;;;;;;4.82;3.20;;;;;;;;;;5074811;28;20750;-79
2023/01/16 12:43:17;;;;;;;5.35;3.38;;;;;;;;;;5087052;28;20872;-80
2023/01/16 12:43:51;;;;;;;5.75;3.35;;;;;;;;;;5126154;27;20390;-80
2023/01/16 12:46:28;;;;;;;4.40;3.25;;;;;;;;;;5091476;28;20494;-79
2023/01/16 12:49:20;;;;;;;5.57;3.58;;;;;;;;;;5091365;28;20402;-80
2023/01/16 12:52:22;;;;;;;6.68;3.47;;;;;;;;;;5073791;28;20439;-79
2023/01/16 12:55:07;;;;;;;8.30;4.07;;;;;;;;;;5013969;28;21002;-80
2023/01/16 12:57:42;;;;;;;5.90;3.80;;;;;;;;;;5097947;28;20428;-79
2023/01/16 13:00:14;;;;;;;4.50;3.10;;;;;;;;;;5071188;28;20885;-79
2023/01/16 13:02:47;;;;;;;4.95;3.30;;;;;;;;;;5071605;28;20410;-80
2023/01/16 13:05:22;;;;;;;18.35;5.07;;;;;;;;;;5084275;28;20408;-79
2023/01/16 13:07:51;;;;;;;6.83;4.30;;;;;;;;;;5096392;28;20424;-79
2023/01/16 13:13:21;;;;;;;6.72;4.60;;;;;;;;;;5088282;28;20891;-79
2023/01/16 13:15:50;;;;;;;6.35;4.35;;;;;;;;;;5071558;28;20404;-79
2023/01/16 13:18:23;;;;;;;54.45;8.18;;;;;;;;;;5084054;28;20419;-80
2023/01/16 13:20:52;;;;;;;8.15;4.70;;;;;;;;;;5103923;28;20452;-80
2023/01/16 13:23:21;;;;;;;7.53;4.80;;;;;;;;;;5092293;28;20390;-79
2023/01/16 13:25:48;;;;;;;6.53;4.60;;;;;;;;;;5091977;28;20394;-79
2023/01/16 13:28:30;;;;;;;41.53;7.57;;;;;;;;;;5091855;28;20394;-79
2023/01/16 13:30:59;;;;;;;7.20;5.17;;;;;;;;;;5090928;28;20456;-79
2023/01/16 13:33:28;;;;;;;7.78;5.07;;;;;;;;;;5076633;28;20491;-79
2023/01/16 13:35:54;;;;;;;7.45;5.43;;;;;;;;;;5073992;28;20406;-79
2023/01/16 13:38:20;;;;;;;142.20;15.00;;;;;;;;;;5090872;28;20398;-79
2023/01/16 13:41:07;;;;;;;9.02;5.22;;;;;;;;;;5090637;28;20398;-79
2023/01/16 13:46:40;;;;;;;6.80;4.90;;;;;;;;;;5067733;28;20399;-80
2023/01/16 13:49:09;;;;;;;9.98;5.70;;;;;;;;;;5074242;28;20464;-86
2023/01/16 13:51:42;;;;;;;16.98;5.85;;;;;;;;;;5087155;28;20767;-85
2023/01/16 13:54:12;;;;;;;8.15;5.90;;;;;;;;;;5091613;28;20944;-86
2023/01/16 13:56:40;;;;;;;11.07;5.80;;;;;;;;;;5091608;28;20409;-86
2023/01/16 13:59:08;;;;;;;31.33;7.13;;;;;;;;;;5090709;28;20417;-86
2023/01/16 14:01:37;;;;;;;63.20;9.50;;;;;;;;;;5090120;28;20394;-85
2023/01/16 14:04:16;;;;;;;9.10;5.75;;;;;;;;;;5081349;28;20426;-86
2023/01/16 14:09:03;;;;;;;9.27;5.78;;;;;;;;;;5077568;28;20903;-87
2023/01/16 14:10:01;;;;;;;10.48;5.97;;;;;;;;;;5086921;28;20921;-85
2023/01/16 14:12:42;;;;;;;8.70;5.80;;;;;;;;;;5079684;28;20410;-86
2023/01/16 14:18:02;;;;;;;64.90;11.23;;;;;;;;;;5087387;28;20562;-86
2023/01/16 14:20:37;;;;;;;45.28;8.95;;;;;;;;;;5073949;28;20512;-85
2023/01/16 14:25:57;;;;;;;88.50;12.65;;;;;;;;;;5087525;28;20505;-85
2023/01/16 14:28:26;;;;;;;10.05;6.55;;;;;;;;;;5090734;28;20526;-86
2023/01/16 14:30:53;;;;;;;15.03;10.10;;;;;;;;;;5105134;28;20405;-87
2023/01/16 14:33:19;;;;;;;34.08;9.90;;;;;;;;;;5116572;27;20494;-87
2023/01/16 14:35:49;;;;;;;72.90;10.73;;;;;;;;;;5068691;28;20929;-85
2023/01/16 14:38:22;;;;;;;12.27;7.88;;;;;;;;;;5093968;28;20496;-86
2023/01/16 14:55:32;;;;;;;9.30;6.00;;;;;;;;;;5091140;28;20880;-85
2023/01/16 14:57:59;;;;;;;9.83;6.00;;;;;;;;;;5093431;28;20872;-85
2023/01/16 15:00:26;;;;;;;8.65;5.53;;;;;;;;;;5091001;28;20448;-85
2023/01/16 15:03:03;;;;;;;8.35;5.40;;;;;;;;;;5073832;28;20911;-85
2023/01/16 15:05:49;;;;;;;7.63;4.68;;;;;;;;;;5109530;28;20413;-86
2023/01/16 15:08:16;;;;;;;8.13;5.50;;;;;;;;;;5083000;28;20441;-86
2023/01/16 15:10:43;;;;;;;8.45;4.60;;;;;;;;;;5089964;28;20933;-86
2023/01/16 15:13:14;;;;;;;5.90;4.40;;;;;;;;;;5090747;28;20525;-86
2023/01/16 15:15:43;;;;;;;6.77;4.27;;;;;;;;;;5098607;28;20495;-86
2023/01/16 15:23:43;;;;;;;8.73;4.78;;;;;;;;;;5089655;28;20424;-85
2023/01/16 15:26:11;;;;;;;7.38;4.90;;;;;;;;;;5100690;28;20958;-85
2023/01/16 15:28:59;;;;;;;7.55;4.13;;;;;;;;;;5097741;28;20422;-85
2023/01/16 15:31:27;;;;;;;6.70;4.57;;;;;;;;;;5101499;28;20418;-84
2023/01/16 15:33:59;;;;;;;8.80;4.97;;;;;;;;;;5119940;27;20418;-85
2023/01/16 15:36:28;;;;;;;9.32;5.15;;;;;;;;;;5085307;28;20415;-85
2023/01/16 15:38:56;;;;;;;9.70;5.82;;;;;;;;;;5073798;28;20926;-85
2023/01/16 15:47:18;;;;;;;14.98;8.27;;;;;;;;;;5079202;28;20818;-83
2023/01/16 15:49:50;;;;;;;12.35;7.82;;;;;;;;;;5072505;28;20525;-85
2023/01/16 15:52:17;;;;;;;23.27;7.43;;;;;;;;;;5080575;28;20421;-86
2023/01/16 15:54:43;;;;;;;12.75;7.70;;;;;;;;;;5074913;28;20471;-85
2023/01/16 15:57:17;;;;;;;9.43;6.05;;;;;;;;;;5091975;28;20420;-86
2023/01/16 15:59:56;;;;;;;15.68;8.90;;;;;;;;;;5092442;28;20422;-85
2023/01/16 16:02:24;;;;;;;10.82;7.63;;;;;;;;;;5091475;28;20420;-85
2023/01/16 16:04:55;;;;;;;17.15;7.20;;;;;;;;;;5091760;28;20412;-80
2023/01/16 16:07:22;;;;;;;168.88;19.05;;;;;;;;;;5055438;28;20423;-80
2023/01/16 16:09:50;;;;;;;10.43;7.60;;;;;;;;;;5088558;28;20403;-79
2023/01/16 16:12:18;;;;;;;10.88;7.95;;;;;;;;;;5109306;28;20398;-79
2023/01/16 16:20:34;;;;;;;13.60;8.57;;;;;;;;;;5121082;27;20421;-82
2023/01/16 16:23:05;;;;;;;11.13;7.72;;;;;;;;;;5088224;28;20453;-82